sensor_id;sensor_type;location;lat;lon;timestamp;P1;durP1;ratioP1;P2;durP2;ratioP2
27666;SDS011;15074;50.940;5.282;2024-02-21T00:01:39;27.85;;;15.25;;
27666;SDS011;15074;50.940;5.282;2024-02-21T00:04:05;33.15;;;13.93;;
27666;SDS011;15074;50.940;5.282;2024-02-21T00:06:31;37.83;;;14.57;;
27666;SDS011;15074;50.940;5.282;2024-02-21T00:08:57;27.70;;;14.45;;
27666;SDS011;15074;50.940;5.282;2024-02-21T00:11:23;35.03;;;16.35;;
27666;SDS011;15074;50.940;5.282;2024-02-21T00:13:48;34.20;;;14.73;;
27666;SDS011;15074;50.940;5.282;2024-02-21T00:16:15;29.00;;;13.95;;
27666;SDS011;15074;50.940;5.282;2024-02-21T00:18:41;26.25;;;14.07;;
27666;SDS011;15074;50.940;5.282;2024-02-21T00:21:07;32.58;;;14.43;;
27666;SDS011;15074;50.940;5.282;2024-02-21T00:23:33;31.10;;;15.25;;
27666;SDS011;15074;50.940;5.282;2024-02-21T00:25:58;28.13;;;13.63;;
27666;SDS011;15074;50.940;5.282;2024-02-21T00:28:24;28.15;;;13.50;;
27666;SDS011;15074;50.940;5.282;2024-02-21T00:30:50;30.15;;;14.32;;
27666;SDS011;15074;50.940;5.282;2024-02-21T00:33:18;38.03;;;14.85;;
27666;SDS011;15074;50.940;5.282;2024-02-21T00:35:44;25.80;;;13.00;;
27666;SDS011;15074;50.940;5.282;2024-02-21T00:38:10;22.48;;;13.20;;
27666;SDS011;15074;50.940;5.282;2024-02-21T00:40:35;28.85;;;13.73;;
27666;SDS011;15074;50.940;5.282;2024-02-21T00:43:01;28.88;;;12.85;;
27666;SDS011;15074;50.940;5.282;2024-02-21T00:45:27;20.30;;;12.73;;
27666;SDS011;15074;50.940;5.282;2024-02-21T00:47:53;35.72;;;13.38;;
27666;SDS011;15074;50.940;5.282;2024-02-21T00:50:19;24.17;;;13.93;;
27666;SDS011;15074;50.940;5.282;2024-02-21T00:52:44;20.15;;;11.70;;
27666;SDS011;15074;50.940;5.282;2024-02-21T00:55:10;22.70;;;12.38;;
27666;SDS011;15074;50.940;5.282;2024-02-21T00:57:36;25.17;;;12.68;;
27666;SDS011;15074;50.940;5.282;2024-02-21T01:00:02;19.50;;;12.00;;
27666;SDS011;15074;50.940;5.282;2024-02-21T01:02:28;24.05;;;12.60;;
27666;SDS011;15074;50.940;5.282;2024-02-21T01:04:56;26.70;;;12.57;;
27666;SDS011;15074;50.940;5.282;2024-02-21T01:07:22;21.75;;;11.93;;
27666;SDS011;15074;50.940;5.282;2024-02-21T01:09:48;27.58;;;11.65;;
27666;SDS011;15074;50.940;5.282;2024-02-21T01:12:16;27.05;;;12.55;;
27666;SDS011;15074;50.940;5.282;2024-02-21T01:14:42;21.98;;;12.20;;
27666;SDS011;15074;50.940;5.282;2024-02-21T01:17:08;13.02;;;10.98;;
27666;SDS011;15074;50.940;5.282;2024-02-21T01:19:33;23.58;;;10.77;;
27666;SDS011;15074;50.940;5.282;2024-02-21T01:21:59;24.33;;;11.13;;
27666;SDS011;15074;50.940;5.282;2024-02-21T01:24:24;28.48;;;11.98;;
27666;SDS011;15074;50.940;5.282;2024-02-21T01:26:50;24.95;;;11.23;;
27666;SDS011;15074;50.940;5.282;2024-02-21T01:29:16;24.88;;;11.65;;
27666;SDS011;15074;50.940;5.282;2024-02-21T01:31:42;15.32;;;11.27;;
27666;SDS011;15074;50.940;5.282;2024-02-21T01:34:07;19.77;;;11.02;;
27666;SDS011;15074;50.940;5.282;2024-02-21T01:36:33;28.85;;;10.60;;
27666;SDS011;15074;50.940;5.282;2024-02-21T01:38:59;18.13;;;10.25;;
27666;SDS011;15074;50.940;5.282;2024-02-21T01:41:24;17.40;;;10.00;;
27666;SDS011;15074;50.940;5.282;2024-02-21T01:43:50;17.65;;;10.27;;
27666;SDS011;15074;50.940;5.282;2024-02-21T01:46:16;18.65;;;10.05;;
27666;SDS011;15074;50.940;5.282;2024-02-21T01:48:41;17.42;;;9.68;;
27666;SDS011;15074;50.940;5.282;2024-02-21T01:51:07;17.30;;;9.73;;
27666;SDS011;15074;50.940;5.282;2024-02-21T01:53:37;16.88;;;9.95;;
27666;SDS011;15074;50.940;5.282;2024-02-21T01:56:07;16.65;;;8.57;;
27666;SDS011;15074;50.940;5.282;2024-02-21T01:58:33;18.80;;;9.65;;
27666;SDS011;15074;50.940;5.282;2024-02-21T02:01:02;18.45;;;10.70;;
27666;SDS011;15074;50.940;5.282;2024-02-21T02:03:28;18.27;;;8.98;;
27666;SDS011;15074;50.940;5.282;2024-02-21T02:05:55;18.95;;;10.38;;
27666;SDS011;15074;50.940;5.282;2024-02-21T02:08:20;20.77;;;9.30;;
27666;SDS011;15074;50.940;5.282;2024-02-21T02:10:47;16.67;;;9.30;;
27666;SDS011;15074;50.940;5.282;2024-02-21T02:13:13;19.55;;;9.20;;
27666;SDS011;15074;50.940;5.282;2024-02-21T02:18:08;16.42;;;10.35;;
27666;SDS011;15074;50.940;5.282;2024-02-21T02:20:34;18.23;;;8.82;;
27666;SDS011;15074;50.940;5.282;2024-02-21T02:23:00;18.58;;;10.38;;
27666;SDS011;15074;50.940;5.282;2024-02-21T02:25:36;16.40;;;8.73;;
27666;SDS011;15074;50.940;5.282;2024-02-21T02:28:03;13.00;;;8.97;;
27666;SDS011;15074;50.940;5.282;2024-02-21T02:30:33;17.45;;;10.10;;
27666;SDS011;15074;50.940;5.282;2024-02-21T02:33:04;15.93;;;8.98;;
27666;SDS011;15074;50.940;5.282;2024-02-21T02:35:30;16.60;;;9.27;;
27666;SDS011;15074;50.940;5.282;2024-02-21T02:37:56;17.25;;;9.82;;
27666;SDS011;15074;50.940;5.282;2024-02-21T02:40:22;14.35;;;9.25;;
27666;SDS011;15074;50.940;5.282;2024-02-21T02:42:48;21.80;;;9.68;;
27666;SDS011;15074;50.940;5.282;2024-02-21T02:45:15;17.17;;;9.43;;
27666;SDS011;15074;50.940;5.282;2024-02-21T02:47:41;18.83;;;9.50;;
27666;SDS011;15074;50.940;5.282;2024-02-21T02:50:07;19.25;;;9.50;;
27666;SDS011;15074;50.940;5.282;2024-02-21T02:52:33;17.60;;;9.75;;
27666;SDS011;15074;50.940;5.282;2024-02-21T02:54:59;15.10;;;8.85;;
27666;SDS011;15074;50.940;5.282;2024-02-21T02:57:26;16.92;;;9.43;;
27666;SDS011;15074;50.940;5.282;2024-02-21T02:59:52;25.65;;;10.02;;
27666;SDS011;15074;50.940;5.282;2024-02-21T03:02:18;15.02;;;8.75;;
27666;SDS011;15074;50.940;5.282;2024-02-21T03:04:43;19.73;;;9.15;;
27666;SDS011;15074;50.940;5.282;2024-02-21T03:07:09;15.20;;;9.32;;
27666;SDS011;15074;50.940;5.282;2024-02-21T03:09:36;13.82;;;9.48;;
27666;SDS011;15074;50.940;5.282;2024-02-21T03:12:03;16.33;;;9.95;;
27666;SDS011;15074;50.940;5.282;2024-02-21T03:14:29;18.83;;;9.32;;
27666;SDS011;15074;50.940;5.282;2024-02-21T03:16:55;16.30;;;8.75;;
27666;SDS011;15074;50.940;5.282;2024-02-21T03:19:21;27.17;;;9.27;;
27666;SDS011;15074;50.940;5.282;2024-02-21T03:21:47;18.10;;;9.60;;
27666;SDS011;15074;50.940;5.282;2024-02-21T03:24:14;17.08;;;8.63;;
27666;SDS011;15074;50.940;5.282;2024-02-21T03:26:41;17.05;;;8.90;;
27666;SDS011;15074;50.940;5.282;2024-02-21T03:29:06;20.10;;;9.93;;
27666;SDS011;15074;50.940;5.282;2024-02-21T03:31:33;14.75;;;8.95;;
27666;SDS011;15074;50.940;5.282;2024-02-21T03:34:00;13.10;;;9.65;;
27666;SDS011;15074;50.940;5.282;2024-02-21T03:36:26;16.27;;;9.63;;
27666;SDS011;15074;50.940;5.282;2024-02-21T03:38:51;20.92;;;10.75;;
27666;SDS011;15074;50.940;5.282;2024-02-21T03:41:17;17.13;;;9.95;;
27666;SDS011;15074;50.940;5.282;2024-02-21T03:43:42;16.65;;;9.77;;
27666;SDS011;15074;50.940;5.282;2024-02-21T03:46:08;17.85;;;9.35;;
27666;SDS011;15074;50.940;5.282;2024-02-21T03:48:34;20.45;;;10.63;;
27666;SDS011;15074;50.940;5.282;2024-02-21T03:51:00;14.82;;;8.60;;
27666;SDS011;15074;50.940;5.282;2024-02-21T03:53:26;17.90;;;9.43;;
27666;SDS011;15074;50.940;5.282;2024-02-21T03:55:52;16.75;;;9.38;;
27666;SDS011;15074;50.940;5.282;2024-02-21T03:58:18;19.13;;;10.88;;
27666;SDS011;15074;50.940;5.282;2024-02-21T04:00:44;21.38;;;10.88;;
27666;SDS011;15074;50.940;5.282;2024-02-21T04:03:09;26.90;;;9.23;;
27666;SDS011;15074;50.940;5.282;2024-02-21T04:05:35;18.70;;;10.23;;
27666;SDS011;15074;50.940;5.282;2024-02-21T04:08:03;11.52;;;8.73;;
27666;SDS011;15074;50.940;5.282;2024-02-21T04:10:29;16.40;;;9.32;;
27666;SDS011;15074;50.940;5.282;2024-02-21T04:12:55;13.18;;;8.85;;
27666;SDS011;15074;50.940;5.282;2024-02-21T04:15:21;25.85;;;9.70;;
27666;SDS011;15074;50.940;5.282;2024-02-21T04:17:46;18.42;;;8.70;;
27666;SDS011;15074;50.940;5.282;2024-02-21T04:20:15;17.85;;;9.82;;
27666;SDS011;15074;50.940;5.282;2024-02-21T04:22:44;20.33;;;9.95;;
27666;SDS011;15074;50.940;5.282;2024-02-21T04:25:11;17.38;;;9.00;;
27666;SDS011;15074;50.940;5.282;2024-02-21T04:27:38;16.63;;;9.60;;
27666;SDS011;15074;50.940;5.282;2024-02-21T04:30:04;15.88;;;9.07;;
27666;SDS011;15074;50.940;5.282;2024-02-21T04:32:31;16.02;;;9.63;;
27666;SDS011;15074;50.940;5.282;2024-02-21T04:34:57;12.00;;;8.70;;
27666;SDS011;15074;50.940;5.282;2024-02-21T04:37:23;17.63;;;9.82;;
27666;SDS011;15074;50.940;5.282;2024-02-21T04:39:49;17.73;;;10.32;;
27666;SDS011;15074;50.940;5.282;2024-02-21T04:42:16;13.82;;;8.75;;
27666;SDS011;15074;50.940;5.282;2024-02-21T04:44:42;14.63;;;9.05;;
27666;SDS011;15074;50.940;5.282;2024-02-21T04:47:08;21.23;;;9.52;;
27666;SDS011;15074;50.940;5.282;2024-02-21T04:49:34;15.10;;;8.77;;
27666;SDS011;15074;50.940;5.282;2024-02-21T04:52:00;16.92;;;10.27;;
27666;SDS011;15074;50.940;5.282;2024-02-21T04:54:26;14.82;;;9.05;;
27666;SDS011;15074;50.940;5.282;2024-02-21T04:56:52;21.30;;;8.57;;
27666;SDS011;15074;50.940;5.282;2024-02-21T04:59:17;17.70;;;9.38;;
27666;SDS011;15074;50.940;5.282;2024-02-21T05:01:43;15.25;;;9.32;;
27666;SDS011;15074;50.940;5.282;2024-02-21T05:04:09;16.80;;;9.07;;
27666;SDS011;15074;50.940;5.282;2024-02-21T05:06:38;18.13;;;9.27;;
27666;SDS011;15074;50.940;5.282;2024-02-21T05:09:05;29.05;;;9.23;;
27666;SDS011;15074;50.940;5.282;2024-02-21T05:11:31;15.88;;;8.32;;
27666;SDS011;15074;50.940;5.282;2024-02-21T05:13:57;18.80;;;8.68;;
27666;SDS011;15074;50.940;5.282;2024-02-21T05:16:22;18.40;;;8.43;;
27666;SDS011;15074;50.940;5.282;2024-02-21T05:18:48;18.52;;;8.82;;
27666;SDS011;15074;50.940;5.282;2024-02-21T05:21:14;11.13;;;8.13;;
27666;SDS011;15074;50.940;5.282;2024-02-21T05:23:39;14.70;;;8.73;;
27666;SDS011;15074;50.940;5.282;2024-02-21T05:26:06;20.55;;;8.30;;
27666;SDS011;15074;50.940;5.282;2024-02-21T05:28:31;14.50;;;8.50;;
27666;SDS011;15074;50.940;5.282;2024-02-21T05:30:57;11.50;;;9.15;;
27666;SDS011;15074;50.940;5.282;2024-02-21T05:33:23;11.75;;;7.97;;
27666;SDS011;15074;50.940;5.282;2024-02-21T05:35:49;9.60;;;7.18;;
27666;SDS011;15074;50.940;5.282;2024-02-21T05:38:15;25.08;;;8.18;;
27666;SDS011;15074;50.940;5.282;2024-02-21T05:40:41;13.13;;;7.07;;
27666;SDS011;15074;50.940;5.282;2024-02-21T05:43:07;11.70;;;6.90;;
27666;SDS011;15074;50.940;5.282;2024-02-21T05:45:34;10.65;;;7.28;;
27666;SDS011;15074;50.940;5.282;2024-02-21T05:48:00;8.57;;;7.10;;
27666;SDS011;15074;50.940;5.282;2024-02-21T05:50:25;11.10;;;7.72;;
27666;SDS011;15074;50.940;5.282;2024-02-21T05:52:54;15.05;;;7.40;;
27666;SDS011;15074;50.940;5.282;2024-02-21T05:55:21;36.30;;;8.05;;
27666;SDS011;15074;50.940;5.282;2024-02-21T05:57:47;11.32;;;6.88;;
27666;SDS011;15074;50.940;5.282;2024-02-21T06:00:13;20.63;;;7.43;;
27666;SDS011;15074;50.940;5.282;2024-02-21T06:02:39;7.43;;;5.85;;
27666;SDS011;15074;50.940;5.282;2024-02-21T06:05:05;10.70;;;6.22;;
27666;SDS011;15074;50.940;5.282;2024-02-21T06:07:32;8.82;;;6.55;;
27666;SDS011;15074;50.940;5.282;2024-02-21T06:09:58;8.30;;;7.10;;
27666;SDS011;15074;50.940;5.282;2024-02-21T06:12:27;12.63;;;7.72;;
27666;SDS011;15074;50.940;5.282;2024-02-21T06:14:53;11.60;;;8.45;;
27666;SDS011;15074;50.940;5.282;2024-02-21T06:17:19;10.68;;;7.90;;
27666;SDS011;15074;50.940;5.282;2024-02-21T06:19:44;13.00;;;7.78;;
27666;SDS011;15074;50.940;5.282;2024-02-21T06:22:10;16.02;;;6.70;;
27666;SDS011;15074;50.940;5.282;2024-02-21T06:24:36;10.30;;;7.35;;
27666;SDS011;15074;50.940;5.282;2024-02-21T06:27:03;14.60;;;7.85;;
27666;SDS011;15074;50.940;5.282;2024-02-21T06:29:30;9.73;;;6.70;;
27666;SDS011;15074;50.940;5.282;2024-02-21T06:31:56;10.65;;;7.88;;
27666;SDS011;15074;50.940;5.282;2024-02-21T06:34:22;11.05;;;6.90;;
27666;SDS011;15074;50.940;5.282;2024-02-21T06:36:49;9.32;;;7.20;;
27666;SDS011;15074;50.940;5.282;2024-02-21T06:39:15;9.90;;;7.88;;
27666;SDS011;15074;50.940;5.282;2024-02-21T06:41:40;11.63;;;8.75;;
27666;SDS011;15074;50.940;5.282;2024-02-21T06:44:06;17.30;;;9.95;;
27666;SDS011;15074;50.940;5.282;2024-02-21T06:46:32;48.97;;;11.43;;
27666;SDS011;15074;50.940;5.282;2024-02-21T06:48:58;17.65;;;9.52;;
27666;SDS011;15074;50.940;5.282;2024-02-21T06:51:30;15.13;;;9.63;;
27666;SDS011;15074;50.940;5.282;2024-02-21T06:53:56;11.55;;;9.23;;
27666;SDS011;15074;50.940;5.282;2024-02-21T06:56:23;13.07;;;9.40;;
27666;SDS011;15074;50.940;5.282;2024-02-21T06:58:54;13.70;;;8.65;;
27666;SDS011;15074;50.940;5.282;2024-02-21T07:01:20;16.13;;;8.60;;
27666;SDS011;15074;50.940;5.282;2024-02-21T07:03:45;12.00;;;9.55;;
27666;SDS011;15074;50.940;5.282;2024-02-21T07:06:11;23.80;;;8.95;;
27666;SDS011;15074;50.940;5.282;2024-02-21T07:08:37;18.20;;;9.27;;
27666;SDS011;15074;50.940;5.282;2024-02-21T07:11:04;18.65;;;9.02;;
27666;SDS011;15074;50.940;5.282;2024-02-21T07:13:30;15.00;;;8.60;;
27666;SDS011;15074;50.940;5.282;2024-02-21T07:15:55;23.73;;;8.43;;
27666;SDS011;15074;50.940;5.282;2024-02-21T07:18:21;13.90;;;8.63;;
27666;SDS011;15074;50.940;5.282;2024-02-21T07:20:46;19.90;;;7.95;;
27666;SDS011;15074;50.940;5.282;2024-02-21T07:23:12;22.27;;;9.57;;
27666;SDS011;15074;50.940;5.282;2024-02-21T07:25:38;20.58;;;9.05;;
27666;SDS011;15074;50.940;5.282;2024-02-21T07:28:05;14.90;;;9.13;;
27666;SDS011;15074;50.940;5.282;2024-02-21T07:30:30;13.95;;;8.93;;
27666;SDS011;15074;50.940;5.282;2024-02-21T07:32:56;32.67;;;8.68;;
27666;SDS011;15074;50.940;5.282;2024-02-21T07:35:22;13.63;;;9.52;;
27666;SDS011;15074;50.940;5.282;2024-02-21T07:37:48;19.70;;;8.45;;
27666;SDS011;15074;50.940;5.282;2024-02-21T07:40:14;13.32;;;9.35;;
27666;SDS011;15074;50.940;5.282;2024-02-21T07:42:40;18.23;;;9.68;;
27666;SDS011;15074;50.940;5.282;2024-02-21T07:45:07;10.93;;;8.00;;
27666;SDS011;15074;50.940;5.282;2024-02-21T07:47:33;9.87;;;7.33;;
27666;SDS011;15074;50.940;5.282;2024-02-21T07:49:59;15.65;;;8.90;;
27666;SDS011;15074;50.940;5.282;2024-02-21T07:52:24;14.90;;;9.02;;
27666;SDS011;15074;50.940;5.282;2024-02-21T07:54:50;13.52;;;8.52;;
27666;SDS011;15074;50.940;5.282;2024-02-21T07:57:16;23.63;;;8.45;;
27666;SDS011;15074;50.940;5.282;2024-02-21T07:59:42;15.07;;;8.82;;
27666;SDS011;15074;50.940;5.282;2024-02-21T08:02:08;14.23;;;8.55;;
27666;SDS011;15074;50.940;5.282;2024-02-21T08:04:33;18.13;;;8.43;;
27666;SDS011;15074;50.940;5.282;2024-02-21T08:06:59;22.13;;;9.65;;
27666;SDS011;15074;50.940;5.282;2024-02-21T08:09:27;13.18;;;7.45;;
27666;SDS011;15074;50.940;5.282;2024-02-21T08:11:54;14.73;;;7.93;;
27666;SDS011;15074;50.940;5.282;2024-02-21T08:14:20;12.05;;;6.72;;
27666;SDS011;15074;50.940;5.282;2024-02-21T08:16:47;12.95;;;7.63;;
27666;SDS011;15074;50.940;5.282;2024-02-21T08:19:13;12.52;;;7.57;;
27666;SDS011;15074;50.940;5.282;2024-02-21T08:21:39;12.63;;;6.60;;
27666;SDS011;15074;50.940;5.282;2024-02-21T08:24:04;10.77;;;7.18;;
27666;SDS011;15074;50.940;5.282;2024-02-21T08:26:30;10.43;;;5.72;;
27666;SDS011;15074;50.940;5.282;2024-02-21T08:28:59;12.60;;;6.53;;
27666;SDS011;15074;50.940;5.282;2024-02-21T08:31:26;9.85;;;6.55;;
27666;SDS011;15074;50.940;5.282;2024-02-21T08:33:59;9.63;;;5.40;;
27666;SDS011;15074;50.940;5.282;2024-02-21T08:36:32;10.52;;;5.85;;
27666;SDS011;15074;50.940;5.282;2024-02-21T08:38:59;13.40;;;6.57;;
27666;SDS011;15074;50.940;5.282;2024-02-21T08:41:25;9.73;;;5.68;;
27666;SDS011;15074;50.940;5.282;2024-02-21T08:43:52;9.30;;;5.10;;
27666;SDS011;15074;50.940;5.282;2024-02-21T08:46:19;9.57;;;5.88;;
27666;SDS011;15074;50.940;5.282;2024-02-21T08:48:45;12.35;;;4.72;;
27666;SDS011;15074;50.940;5.282;2024-02-21T08:51:12;8.43;;;4.82;;
27666;SDS011;15074;50.940;5.282;2024-02-21T08:53:38;7.90;;;5.07;;
27666;SDS011;15074;50.940;5.282;2024-02-21T08:56:04;7.13;;;5.03;;
27666;SDS011;15074;50.940;5.282;2024-02-21T08:58:30;7.90;;;4.40;;
27666;SDS011;15074;50.940;5.282;2024-02-21T09:00:56;8.27;;;5.10;;
27666;SDS011;15074;50.940;5.282;2024-02-21T09:03:22;29.85;;;6.38;;
27666;SDS011;15074;50.940;5.282;2024-02-21T09:05:47;24.55;;;5.85;;
27666;SDS011;15074;50.940;5.282;2024-02-21T09:08:13;9.20;;;4.70;;
27666;SDS011;15074;50.940;5.282;2024-02-21T09:10:39;5.82;;;4.28;;
27666;SDS011;15074;50.940;5.282;2024-02-21T09:13:05;13.43;;;5.13;;
27666;SDS011;15074;50.940;5.282;2024-02-21T09:15:32;8.13;;;4.87;;
27666;SDS011;15074;50.940;5.282;2024-02-21T09:17:58;14.07;;;4.97;;
27666;SDS011;15074;50.940;5.282;2024-02-21T09:20:24;7.30;;;4.32;;
27666;SDS011;15074;50.940;5.282;2024-02-21T09:22:50;7.22;;;4.63;;
27666;SDS011;15074;50.940;5.282;2024-02-21T09:25:17;7.97;;;4.25;;
27666;SDS011;15074;50.940;5.282;2024-02-21T09:27:43;6.53;;;4.13;;
27666;SDS011;15074;50.940;5.282;2024-02-21T09:30:09;9.60;;;4.38;;
27666;SDS011;15074;50.940;5.282;2024-02-21T09:32:35;7.05;;;4.45;;
27666;SDS011;15074;50.940;5.282;2024-02-21T09:35:02;9.18;;;4.45;;
27666;SDS011;15074;50.940;5.282;2024-02-21T09:37:28;10.43;;;4.55;;
27666;SDS011;15074;50.940;5.282;2024-02-21T09:39:53;7.13;;;4.90;;
27666;SDS011;15074;50.940;5.282;2024-02-21T09:42:22;13.48;;;4.43;;
27666;SDS011;15074;50.940;5.282;2024-02-21T09:44:57;9.20;;;5.57;;
27666;SDS011;15074;50.940;5.282;2024-02-21T09:47:24;8.10;;;4.63;;
27666;SDS011;15074;50.940;5.282;2024-02-21T09:49:59;11.00;;;4.63;;
27666;SDS011;15074;50.940;5.282;2024-02-21T09:52:26;8.45;;;4.35;;
27666;SDS011;15074;50.940;5.282;2024-02-21T09:54:52;11.48;;;5.95;;
27666;SDS011;15074;50.940;5.282;2024-02-21T09:57:19;8.82;;;5.40;;
27666;SDS011;15074;50.940;5.282;2024-02-21T09:59:46;9.63;;;5.70;;
27666;SDS011;15074;50.940;5.282;2024-02-21T10:02:12;25.92;;;6.57;;
27666;SDS011;15074;50.940;5.282;2024-02-21T10:04:39;6.25;;;4.95;;
27666;SDS011;15074;50.940;5.282;2024-02-21T10:07:05;6.95;;;5.32;;
27666;SDS011;15074;50.940;5.282;2024-02-21T10:09:32;64.90;;;7.85;;
27666;SDS011;15074;50.940;5.282;2024-02-21T10:12:08;16.90;;;5.00;;
27666;SDS011;15074;50.940;5.282;2024-02-21T10:14:34;9.32;;;4.78;;
27666;SDS011;15074;50.940;5.282;2024-02-21T10:17:00;48.58;;;6.68;;
27666;SDS011;15074;50.940;5.282;2024-02-21T10:19:27;10.40;;;4.57;;
27666;SDS011;15074;50.940;5.282;2024-02-21T10:22:03;9.60;;;4.80;;
27666;SDS011;15074;50.940;5.282;2024-02-21T10:24:33;8.55;;;5.93;;
27666;SDS011;15074;50.940;5.282;2024-02-21T10:27:03;8.32;;;4.78;;
27666;SDS011;15074;50.940;5.282;2024-02-21T10:29:38;8.30;;;3.88;;
27666;SDS011;15074;50.940;5.282;2024-02-21T10:32:11;8.48;;;4.15;;
27666;SDS011;15074;50.940;5.282;2024-02-21T10:34:38;5.60;;;4.07;;
27666;SDS011;15074;50.940;5.282;2024-02-21T10:37:06;8.20;;;4.40;;
27666;SDS011;15074;50.940;5.282;2024-02-21T10:39:39;20.13;;;4.97;;
27666;SDS011;15074;50.940;5.282;2024-02-21T10:42:06;8.63;;;4.72;;
27666;SDS011;15074;50.940;5.282;2024-02-21T10:44:33;8.85;;;4.05;;
27666;SDS011;15074;50.940;5.282;2024-02-21T10:47:03;9.27;;;4.47;;
27666;SDS011;15074;50.940;5.282;2024-02-21T10:49:39;6.22;;;4.18;;
27666;SDS011;15074;50.940;5.282;2024-02-21T10:57:28;12.40;;;4.00;;
27666;SDS011;15074;50.940;5.282;2024-02-21T10:59:55;7.38;;;3.90;;
27666;SDS011;15074;50.940;5.282;2024-02-21T11:02:23;7.35;;;3.85;;
27666;SDS011;15074;50.940;5.282;2024-02-21T11:04:49;17.60;;;3.45;;
27666;SDS011;15074;50.940;5.282;2024-02-21T11:09:50;12.93;;;3.15;;
27666;SDS011;15074;50.940;5.282;2024-02-21T11:12:20;5.78;;;3.83;;
27666;SDS011;15074;50.940;5.282;2024-02-21T11:14:46;11.43;;;4.03;;
27666;SDS011;15074;50.940;5.282;2024-02-21T11:17:16;9.48;;;4.30;;
27666;SDS011;15074;50.940;5.282;2024-02-21T11:19:42;12.32;;;4.43;;
27666;SDS011;15074;50.940;5.282;2024-02-21T11:22:15;7.70;;;3.70;;
27666;SDS011;15074;50.940;5.282;2024-02-21T11:24:41;15.60;;;5.07;;
27666;SDS011;15074;50.940;5.282;2024-02-21T11:29:46;16.40;;;4.10;;
27666;SDS011;15074;50.940;5.282;2024-02-21T11:32:22;10.85;;;4.38;;
27666;SDS011;15074;50.940;5.282;2024-02-21T11:34:55;6.70;;;3.15;;
27666;SDS011;15074;50.940;5.282;2024-02-21T11:37:24;7.22;;;4.20;;
27666;SDS011;15074;50.940;5.282;2024-02-21T11:39:52;7.68;;;3.45;;
27666;SDS011;15074;50.940;5.282;2024-02-21T11:42:18;6.50;;;3.67;;
27666;SDS011;15074;50.940;5.282;2024-02-21T11:44:45;6.20;;;3.47;;
27666;SDS011;15074;50.940;5.282;2024-02-21T11:47:11;9.20;;;3.33;;
27666;SDS011;15074;50.940;5.282;2024-02-21T11:49:46;29.75;;;5.60;;
27666;SDS011;15074;50.940;5.282;2024-02-21T11:54:41;4.97;;;2.50;;
27666;SDS011;15074;50.940;5.282;2024-02-21T11:57:07;5.68;;;2.88;;
27666;SDS011;15074;50.940;5.282;2024-02-21T11:59:33;7.57;;;3.30;;
27666;SDS011;15074;50.940;5.282;2024-02-21T12:02:02;9.25;;;3.05;;
27666;SDS011;15074;50.940;5.282;2024-02-21T12:04:28;7.38;;;2.53;;
27666;SDS011;15074;50.940;5.282;2024-02-21T12:06:56;4.07;;;3.05;;
27666;SDS011;15074;50.940;5.282;2024-02-21T12:09:23;69.90;;;3.92;;
27666;SDS011;15074;50.940;5.282;2024-02-21T12:11:59;5.57;;;3.28;;
27666;SDS011;15074;50.940;5.282;2024-02-21T12:14:27;10.77;;;3.80;;
27666;SDS011;15074;50.940;5.282;2024-02-21T12:16:54;13.95;;;4.25;;
27666;SDS011;15074;50.940;5.282;2024-02-21T12:19:20;7.10;;;2.88;;
27666;SDS011;15074;50.940;5.282;2024-02-21T12:21:47;4.55;;;2.88;;
27666;SDS011;15074;50.940;5.282;2024-02-21T12:24:21;8.40;;;2.80;;
27666;SDS011;15074;50.940;5.282;2024-02-21T12:26:48;6.70;;;2.97;;
27666;SDS011;15074;50.940;5.282;2024-02-21T12:29:18;7.95;;;2.80;;
27666;SDS011;15074;50.940;5.282;2024-02-21T12:31:44;6.90;;;3.00;;
27666;SDS011;15074;50.940;5.282;2024-02-21T12:34:10;5.25;;;2.97;;
27666;SDS011;15074;50.940;5.282;2024-02-21T12:36:36;35.60;;;4.05;;
27666;SDS011;15074;50.940;5.282;2024-02-21T12:39:08;24.60;;;4.38;;
27666;SDS011;15074;50.940;5.282;2024-02-21T12:41:37;8.02;;;2.63;;
27666;SDS011;15074;50.940;5.282;2024-02-21T12:44:04;9.35;;;3.05;;
27666;SDS011;15074;50.940;5.282;2024-02-21T12:46:34;11.65;;;3.03;;
27666;SDS011;15074;50.940;5.282;2024-02-21T12:49:03;12.90;;;3.20;;
27666;SDS011;15074;50.940;5.282;2024-02-21T12:51:29;4.75;;;2.47;;
27666;SDS011;15074;50.940;5.282;2024-02-21T12:53:56;6.85;;;3.40;;
27666;SDS011;15074;50.940;5.282;2024-02-21T12:56:22;9.23;;;5.78;;
27666;SDS011;15074;50.940;5.282;2024-02-21T12:58:49;11.30;;;5.85;;
27666;SDS011;15074;50.940;5.282;2024-02-21T13:01:15;3.25;;;2.42;;
27666;SDS011;15074;50.940;5.282;2024-02-21T13:03:41;9.65;;;4.40;;
27666;SDS011;15074;50.940;5.282;2024-02-21T13:06:07;8.70;;;3.47;;
27666;SDS011;15074;50.940;5.282;2024-02-21T13:08:36;5.40;;;3.47;;
27666;SDS011;15074;50.940;5.282;2024-02-21T13:11:02;6.53;;;4.20;;
27666;SDS011;15074;50.940;5.282;2024-02-21T13:13:29;13.68;;;2.67;;
27666;SDS011;15074;50.940;5.282;2024-02-21T13:15:54;7.07;;;2.85;;
27666;SDS011;15074;50.940;5.282;2024-02-21T13:18:20;4.55;;;2.03;;
27666;SDS011;15074;50.940;5.282;2024-02-21T13:20:46;5.30;;;2.40;;
27666;SDS011;15074;50.940;5.282;2024-02-21T13:23:12;5.20;;;2.40;;
27666;SDS011;15074;50.940;5.282;2024-02-21T13:25:38;4.70;;;2.58;;
27666;SDS011;15074;50.940;5.282;2024-02-21T13:28:04;3.05;;;1.77;;
27666;SDS011;15074;50.940;5.282;2024-02-21T13:30:30;4.20;;;2.60;;
27666;SDS011;15074;50.940;5.282;2024-02-21T13:32:55;6.00;;;2.85;;
27666;SDS011;15074;50.940;5.282;2024-02-21T13:35:21;5.78;;;2.05;;
27666;SDS011;15074;50.940;5.282;2024-02-21T13:37:47;3.35;;;2.00;;
27666;SDS011;15074;50.940;5.282;2024-02-21T13:40:12;5.45;;;2.35;;
27666;SDS011;15074;50.940;5.282;2024-02-21T13:42:38;4.07;;;2.67;;
27666;SDS011;15074;50.940;5.282;2024-02-21T13:45:05;3.53;;;2.05;;
27666;SDS011;15074;50.940;5.282;2024-02-21T13:47:31;4.45;;;2.08;;
27666;SDS011;15074;50.940;5.282;2024-02-21T13:49:58;3.73;;;2.20;;
27666;SDS011;15074;50.940;5.282;2024-02-21T13:52:24;3.25;;;1.63;;
27666;SDS011;15074;50.940;5.282;2024-02-21T13:54:51;5.38;;;2.20;;
27666;SDS011;15074;50.940;5.282;2024-02-21T13:57:17;4.15;;;2.30;;
27666;SDS011;15074;50.940;5.282;2024-02-21T13:59:43;3.65;;;2.17;;
27666;SDS011;15074;50.940;5.282;2024-02-21T14:02:08;36.20;;;4.63;;
27666;SDS011;15074;50.940;5.282;2024-02-21T14:04:34;3.88;;;2.17;;
27666;SDS011;15074;50.940;5.282;2024-02-21T14:07:00;13.95;;;2.60;;
27666;SDS011;15074;50.940;5.282;2024-02-21T14:09:26;4.57;;;2.00;;
27666;SDS011;15074;50.940;5.282;2024-02-21T14:11:52;4.82;;;2.55;;
27666;SDS011;15074;50.940;5.282;2024-02-21T14:14:18;4.45;;;2.00;;
27666;SDS011;15074;50.940;5.282;2024-02-21T14:16:44;4.75;;;2.20;;
27666;SDS011;15074;50.940;5.282;2024-02-21T14:19:12;4.65;;;2.20;;
27666;SDS011;15074;50.940;5.282;2024-02-21T14:21:38;4.18;;;1.90;;
27666;SDS011;15074;50.940;5.282;2024-02-21T14:24:04;3.65;;;2.30;;
27666;SDS011;15074;50.940;5.282;2024-02-21T14:26:31;5.78;;;2.38;;
27666;SDS011;15074;50.940;5.282;2024-02-21T14:28:57;4.03;;;2.00;;
27666;SDS011;15074;50.940;5.282;2024-02-21T14:31:23;3.45;;;1.95;;
27666;SDS011;15074;50.940;5.282;2024-02-21T14:33:49;4.95;;;2.40;;
27666;SDS011;15074;50.940;5.282;2024-02-21T14:36:14;4.40;;;2.25;;
27666;SDS011;15074;50.940;5.282;2024-02-21T14:38:40;5.20;;;1.98;;
27666;SDS011;15074;50.940;5.282;2024-02-21T14:41:08;4.35;;;2.15;;
27666;SDS011;15074;50.940;5.282;2024-02-21T14:43:34;3.20;;;1.85;;
27666;SDS011;15074;50.940;5.282;2024-02-21T14:46:00;3.30;;;2.05;;
27666;SDS011;15074;50.940;5.282;2024-02-21T14:48:29;4.97;;;2.60;;